Time;durP1;ratioP1;P1;durP2;ratioP2;P2;SDS_P1;SDS_P2;PMS_P1;PMS_P2;Temp;Humidity;BMP_temperature;BMP_pressure;BME280_temperature;BME280_humidity;BME280_pressure;Samples;Min_cycle;Max_cycle;Signal;HPM_P1;HPM_P2
2022/01/20 00:03:30;;;;;;;4.63;2.58;;;;;;;;;;5026443;28;20091;-75
2022/01/20 00:27:48;;;;;;;5.53;2.50;;;;;;;;;;5019959;28;20040;-75
2022/01/20 00:30:33;;;;;;;4.82;2.55;;;;;;;;;;5034143;28;20136;-75
2022/01/20 00:35:31;;;;;;;5.25;2.28;;;;;;;;;;5046680;28;20417;-74
2022/01/20 00:37:57;;;;;;;4.03;1.80;;;;;;;;;;5020117;28;20453;-75
2022/01/20 00:40:23;;;;;;;6.05;2.25;;;;;;;;;;5039501;28;20052;-75
2022/01/20 00:42:49;;;;;;;5.25;2.05;;;;;;;;;;5024132;28;20067;-75
2022/01/20 00:45:15;;;;;;;3.47;2.00;;;;;;;;;;5039818;28;20063;-75
2022/01/20 00:47:40;;;;;;;4.90;2.10;;;;;;;;;;5035567;28;20075;-74
2022/01/20 00:50:08;;;;;;;5.20;1.88;;;;;;;;;;5020327;28;20037;-74
2022/01/20 00:52:33;;;;;;;5.43;2.13;;;;;;;;;;5028895;28;20048;-75
2022/01/20 00:54:58;;;;;;;4.88;2.20;;;;;;;;;;5020078;28;20049;-75
2022/01/20 00:57:24;;;;;;;4.40;2.33;;;;;;;;;;5019890;28;20060;-75
2022/01/20 00:59:49;;;;;;;3.60;1.80;;;;;;;;;;5036269;28;20130;-75
2022/01/20 01:02:15;;;;;;;4.40;1.83;;;;;;;;;;5051518;28;20045;-75
2022/01/20 01:04:40;;;;;;;5.55;2.00;;;;;;;;;;5039718;28;20079;-75
2022/01/20 01:07:44;;;;;;;4.85;2.70;;;;;;;;;;5039951;28;20040;-75
2022/01/20 01:09:52;;;;;;;5.32;2.03;;;;;;;;;;5044865;28;20524;-75
2022/01/20 01:12:27;;;;;;;5.07;2.15;;;;;;;;;;5039261;28;20032;-75
2022/01/20 01:14:53;;;;;;;5.63;2.15;;;;;;;;;;5042362;28;20040;-75
2022/01/20 01:22:30;;;;;;;7.97;3.40;;;;;;;;;;5024392;28;20439;-75
2022/01/20 01:24:56;;;;;;;7.40;3.08;;;;;;;;;;5003612;28;20101;-75
2022/01/20 01:27:22;;;;;;;8.10;3.58;;;;;;;;;;5019130;28;20037;-75
2022/01/20 01:32:49;;;;;;;8.75;3.70;;;;;;;;;;5021665;28;20068;-75
2022/01/20 01:35:12;;;;;;;6.32;2.80;;;;;;;;;;5038675;28;20576;-75
2022/01/20 01:38:25;;;;;;;7.88;3.30;;;;;;;;;;5056006;28;20033;-75
2022/01/20 01:40:25;;;;;;;7.80;3.28;;;;;;;;;;5056067;28;20502;-75
2022/01/20 01:42:52;;;;;;;8.88;3.60;;;;;;;;;;5035450;28;20521;-75
2022/01/20 01:45:24;;;;;;;8.40;3.53;;;;;;;;;;5019680;28;20507;-75
2022/01/20 01:47:49;;;;;;;8.50;3.22;;;;;;;;;;5038486;28;20122;-75
2022/01/20 01:50:15;;;;;;;6.35;2.47;;;;;;;;;;5022223;28;20032;-75
2022/01/20 01:52:40;;;;;;;7.28;2.70;;;;;;;;;;5047818;28;20048;-75
2022/01/20 01:55:07;;;;;;;8.60;3.08;;;;;;;;;;5018866;28;20091;-75
2022/01/20 01:57:32;;;;;;;6.15;2.83;;;;;;;;;;5018823;28;20507;-75
2022/01/20 01:59:57;;;;;;;6.70;2.58;;;;;;;;;;5019599;28;20044;-75
2022/01/20 02:02:23;;;;;;;6.28;2.83;;;;;;;;;;5002649;28;20037;-75
2022/01/20 02:04:50;;;;;;;6.00;3.00;;;;;;;;;;5018723;28;20037;-75
2022/01/20 02:07:48;;;;;;;8.07;3.40;;;;;;;;;;5035205;28;20111;-75
2022/01/20 02:18:43;;;;;;;7.43;2.65;;;;;;;;;;5030388;28;20028;-75
2022/01/20 02:21:09;;;;;;;8.25;3.05;;;;;;;;;;5029545;28;20060;-75
2022/01/20 02:23:34;;;;;;;7.55;2.70;;;;;;;;;;5018349;28;20487;-75
2022/01/20 02:26:00;;;;;;;8.73;2.05;;;;;;;;;;5033610;28;20127;-75
2022/01/20 02:28:27;;;;;;;8.30;3.25;;;;;;;;;;5038081;28;20502;-75
2022/01/20 02:30:53;;;;;;;6.80;2.78;;;;;;;;;;5036963;28;20154;-75
2022/01/20 02:33:19;;;;;;;6.47;2.33;;;;;;;;;;5037673;28;20043;-75
2022/01/20 02:35:49;;;;;;;6.88;3.10;;;;;;;;;;5037156;28;20495;-75
2022/01/20 02:46:30;;;;;;;6.30;2.60;;;;;;;;;;5023740;28;20151;-75
2022/01/20 02:48:56;;;;;;;5.35;2.33;;;;;;;;;;5017971;28;20047;-75
2022/01/20 02:51:21;;;;;;;6.22;2.20;;;;;;;;;;5017907;28;20044;-74
2022/01/20 02:53:47;;;;;;;7.15;2.53;;;;;;;;;;5046748;28;20511;-75
2022/01/20 02:56:12;;;;;;;6.20;2.67;;;;;;;;;;5037064;28;20076;-75
2022/01/20 02:58:37;;;;;;;5.40;2.20;;;;;;;;;;5053938;28;20032;-75
2022/01/20 03:01:03;;;;;;;4.63;1.83;;;;;;;;;;5037689;28;20452;-75
2022/01/20 03:03:28;;;;;;;5.28;2.33;;;;;;;;;;5037437;28;20032;-75
2022/01/20 03:05:54;;;;;;;6.38;2.25;;;;;;;;;;5021006;28;20036;-74
2022/01/20 03:08:19;;;;;;;6.05;2.70;;;;;;;;;;5053458;28;20111;-75
2022/01/20 03:10:46;;;;;;;4.53;1.80;;;;;;;;;;5037461;28;20442;-75
2022/01/20 03:13:11;;;;;;;6.38;2.05;;;;;;;;;;5040237;28;20430;-75
2022/01/20 03:15:37;;;;;;;6.80;2.42;;;;;;;;;;5001418;28;20032;-75
2022/01/20 03:18:03;;;;;;;6.40;2.55;;;;;;;;;;5017420;28;20403;-75
2022/01/20 03:20:28;;;;;;;6.15;2.15;;;;;;;;;;5017759;28;20033;-75
2022/01/20 03:22:54;;;;;;;6.93;1.90;;;;;;;;;;5000634;28;20040;-75
2022/01/20 03:25:19;;;;;;;5.13;2.17;;;;;;;;;;5017731;28;20047;-75
2022/01/20 03:27:45;;;;;;;7.28;2.78;;;;;;;;;;5032506;28;20059;-75
2022/01/20 03:30:10;;;;;;;5.50;1.95;;;;;;;;;;5053860;28;20036;-75
2022/01/20 03:32:36;;;;;;;6.15;2.20;;;;;;;;;;5020231;28;20380;-75
2022/01/20 03:35:03;;;;;;;5.93;2.33;;;;;;;;;;5059907;28;20049;-75
2022/01/20 03:37:29;;;;;;;6.20;1.83;;;;;;;;;;5033548;28;20029;-75
2022/01/20 03:39:54;;;;;;;5.38;1.67;;;;;;;;;;5033882;28;20095;-75
2022/01/20 03:42:20;;;;;;;5.10;1.80;;;;;;;;;;5030904;28;20132;-75
2022/01/20 03:44:45;;;;;;;4.45;1.92;;;;;;;;;;5030036;28;20049;-75
2022/01/20 03:47:11;;;;;;;5.10;1.80;;;;;;;;;;5016812;28;20458;-75
2022/01/20 03:49:50;;;;;;;6.22;2.33;;;;;;;;;;5033784;28;20045;-74
2022/01/20 03:52:15;;;;;;;5.03;1.88;;;;;;;;;;5003811;28;20045;-75
2022/01/20 03:54:41;;;;;;;6.47;1.83;;;;;;;;;;5033442;28;20045;-75
2022/01/20 03:57:06;;;;;;;4.90;1.77;;;;;;;;;;5033415;28;20041;-75
2022/01/20 03:59:31;;;;;;;6.85;2.40;;;;;;;;;;5000683;28;20427;-75
2022/01/20 04:01:57;;;;;;;3.92;1.58;;;;;;;;;;5033227;28;20416;-75
2022/01/20 04:04:22;;;;;;;4.55;2.10;;;;;;;;;;5017168;28;20411;-75
2022/01/20 04:06:48;;;;;;;5.07;2.15;;;;;;;;;;5041219;28;20036;-75
2022/01/20 04:09:13;;;;;;;5.38;1.73;;;;;;;;;;5033729;28;20553;-75
2022/01/20 04:11:39;;;;;;;4.40;1.35;;;;;;;;;;5001541;28;20388;-75
2022/01/20 04:14:04;;;;;;;5.57;1.80;;;;;;;;;;5020882;28;20037;-75
2022/01/20 04:16:36;;;;;;;5.60;1.70;;;;;;;;;;5037652;28;20111;-75
2022/01/20 04:19:09;;;;;;;6.65;2.30;;;;;;;;;;5021365;28;20044;-75
2022/01/20 04:21:35;;;;;;;5.15;1.40;;;;;;;;;;5036766;28;20036;-75
2022/01/20 04:24:01;;;;;;;7.22;1.90;;;;;;;;;;5021010;28;20048;-75
2022/01/20 04:26:28;;;;;;;5.43;1.60;;;;;;;;;;5055076;28;20037;-75
2022/01/20 04:28:53;;;;;;;5.43;1.90;;;;;;;;;;5012700;28;20498;-75
2022/01/20 04:31:20;;;;;;;5.22;1.42;;;;;;;;;;5040725;28;20044;-75
2022/01/20 04:33:45;;;;;;;4.60;1.73;;;;;;;;;;5038693;28;20033;-76
2022/01/20 04:36:11;;;;;;;6.05;1.70;;;;;;;;;;5064938;28;20048;-76
2022/01/20 04:38:36;;;;;;;4.65;1.70;;;;;;;;;;5020587;28;20061;-76
2022/01/20 04:41:02;;;;;;;4.47;1.33;;;;;;;;;;5037163;28;20064;-76
2022/01/20 04:43:28;;;;;;;5.47;1.48;;;;;;;;;;5020361;28;20028;-76
2022/01/20 04:46:09;;;;;;;4.38;1.55;;;;;;;;;;5040906;28;20092;-76
2022/01/20 04:48:59;;;;;;;5.83;1.53;;;;;;;;;;5044144;28;20041;-76
2022/01/20 04:59:28;;;;;;;3.90;1.33;;;;;;;;;;5042291;28;20111;-75
2022/01/20 05:01:53;;;;;;;4.20;1.25;;;;;;;;;;5038367;28;20397;-76
2022/01/20 05:04:19;;;;;;;4.57;1.63;;;;;;;;;;5039483;28;20036;-76
2022/01/20 05:06:46;;;;;;;5.13;1.20;;;;;;;;;;5039475;28;20036;-75
2022/01/20 05:09:17;;;;;;;4.82;1.48;;;;;;;;;;5049171;28;20041;-75
2022/01/20 05:11:48;;;;;;;4.57;1.13;;;;;;;;;;5021829;28;20037;-75
2022/01/20 05:14:13;;;;;;;4.30;1.10;;;;;;;;;;5037218;28;20111;-75
2022/01/20 05:16:39;;;;;;;4.88;1.63;;;;;;;;;;5019554;28;20116;-75
2022/01/20 05:19:04;;;;;;;4.28;1.45;;;;;;;;;;5019283;28;20419;-75
2022/01/20 05:21:30;;;;;;;7.13;2.00;;;;;;;;;;5019511;28;20123;-75
2022/01/20 05:23:55;;;;;;;4.60;1.27;;;;;;;;;;5005910;28;20421;-75
2022/01/20 05:26:21;;;;;;;3.28;1.15;;;;;;;;;;5019608;28;20044;-75
2022/01/20 05:28:46;;;;;;;5.85;1.10;;;;;;;;;;5019282;28;20746;-75
2022/01/20 05:31:12;;;;;;;4.70;1.10;;;;;;;;;;5039225;28;20477;-75
2022/01/20 05:33:37;;;;;;;5.40;1.60;;;;;;;;;;5038236;28;20125;-75
2022/01/20 05:36:03;;;;;;;4.32;1.00;;;;;;;;;;5006772;28;20037;-75
2022/01/20 05:38:28;;;;;;;4.32;1.27;;;;;;;;;;5033085;28;20453;-75
2022/01/20 05:40:53;;;;;;;4.10;1.10;;;;;;;;;;5035782;28;20516;-75
2022/01/20 05:43:19;;;;;;;3.42;1.02;;;;;;;;;;5002615;28;20056;-75
2022/01/20 05:45:44;;;;;;;4.18;1.20;;;;;;;;;;5019339;28;20033;-75
2022/01/20 05:48:14;;;;;;;4.47;1.70;;;;;;;;;;5018942;28;20052;-75
2022/01/20 05:50:39;;;;;;;3.45;0.77;;;;;;;;;;5019858;28;20041;-75
2022/01/20 05:53:05;;;;;;;3.22;0.90;;;;;;;;;;5028912;28;20422;-75
2022/01/20 05:55:31;;;;;;;4.47;1.02;;;;;;;;;;5037934;28;20044;-75
2022/01/20 05:57:56;;;;;;;2.92;0.73;;;;;;;;;;5032908;28;20040;-76
2022/01/20 06:00:23;;;;;;;2.40;1.10;;;;;;;;;;5038825;28;20040;-75
2022/01/20 06:05:33;;;;;;;3.65;1.15;;;;;;;;;;5024649;28;20587;-75
2022/01/20 06:07:58;;;;;;;3.63;1.00;;;;;;;;;;5038271;28;20119;-75
2022/01/20 06:10:24;;;;;;;2.55;0.70;;;;;;;;;;5038581;28;20409;-75
2022/01/20 06:12:49;;;;;;;3.60;1.30;;;;;;;;;;5036501;28;20033;-75
2022/01/20 06:15:15;;;;;;;2.55;0.77;;;;;;;;;;5037561;28;20032;-75
2022/01/20 06:17:41;;;;;;;3.08;0.98;;;;;;;;;;5038265;28;20052;-75
2022/01/20 06:20:07;;;;;;;1.85;0.70;;;;;;;;;;5038604;28;20037;-76
2022/01/20 06:22:33;;;;;;;3.53;1.00;;;;;;;;;;5020831;28;20044;-76
2022/01/20 06:24:58;;;;;;;4.13;0.95;;;;;;;;;;5035854;28;20051;-77
2022/01/20 06:27:23;;;;;;;3.72;1.02;;;;;;;;;;5015572;28;20052;-77
2022/01/20 06:29:49;;;;;;;4.57;0.95;;;;;;;;;;5034096;28;20403;-77
2022/01/20 06:32:14;;;;;;;5.93;1.20;;;;;;;;;;5017748;28;20414;-76
2022/01/20 06:34:40;;;;;;;3.10;1.13;;;;;;;;;;5041008;28;20713;-77
2022/01/20 06:37:05;;;;;;;6.28;1.30;;;;;;;;;;5018405;28;20184;-77
2022/01/20 06:39:31;;;;;;;3.90;1.00;;;;;;;;;;5014894;28;20040;-76
2022/01/20 06:41:56;;;;;;;3.83;1.52;;;;;;;;;;5031172;28;20036;-76
2022/01/20 06:44:22;;;;;;;4.63;1.42;;;;;;;;;;5022636;28;20041;-76
2022/01/20 06:46:48;;;;;;;5.68;1.35;;;;;;;;;;5025704;28;20391;-76
2022/01/20 06:49:14;;;;;;;6.13;1.70;;;;;;;;;;5010984;28;20090;-77
2022/01/20 06:51:40;;;;;;;5.95;1.33;;;;;;;;;;5037781;28;20051;-76
2022/01/20 06:54:05;;;;;;;7.40;1.65;;;;;;;;;;5017604;28;20507;-76
2022/01/20 06:56:31;;;;;;;5.10;1.13;;;;;;;;;;5034651;28;20052;-76
2022/01/20 06:58:57;;;;;;;6.43;1.42;;;;;;;;;;5034582;28;20063;-76
2022/01/20 07:01:22;;;;;;;6.18;1.52;;;;;;;;;;5033799;28;20052;-77
2022/01/20 07:03:48;;;;;;;7.50;1.80;;;;;;;;;;5021130;28;20037;-77
2022/01/20 07:06:14;;;;;;;8.98;2.38;;;;;;;;;;5037521;28;20506;-76
2022/01/20 07:08:39;;;;;;;10.77;1.80;;;;;;;;;;5020797;28;20032;-77
2022/01/20 07:11:05;;;;;;;6.28;1.90;;;;;;;;;;5037457;28;20075;-76
2022/01/20 07:13:30;;;;;;;6.70;1.58;;;;;;;;;;5035658;28;20032;-76
2022/01/20 07:15:56;;;;;;;11.73;2.20;;;;;;;;;;5001013;28;20045;-77
2022/01/20 07:18:21;;;;;;;7.32;1.90;;;;;;;;;;5034277;28;20435;-76
2022/01/20 07:20:47;;;;;;;5.32;1.92;;;;;;;;;;5017557;28;20037;-76
2022/01/20 07:23:12;;;;;;;7.75;2.45;;;;;;;;;;5017182;28;20041;-76
2022/01/20 07:25:37;;;;;;;9.43;1.98;;;;;;;;;;5017501;28;20048;-76
2022/01/20 07:28:03;;;;;;;6.15;1.55;;;;;;;;;;5000919;28;20431;-76
2022/01/20 07:30:28;;;;;;;8.13;2.03;;;;;;;;;;5017377;28;20395;-76
2022/01/20 07:32:54;;;;;;;5.32;1.42;;;;;;;;;;5017700;28;20102;-74
2022/01/20 07:35:19;;;;;;;6.57;1.75;;;;;;;;;;5019614;28;20094;-75
2022/01/20 07:37:45;;;;;;;5.93;1.38;;;;;;;;;;5027246;28;20098;-76
2022/01/20 07:40:11;;;;;;;12.57;1.90;;;;;;;;;;5026415;28;20044;-76
2022/01/20 07:42:36;;;;;;;8.27;1.80;;;;;;;;;;5001176;28;20450;-76
2022/01/20 07:45:02;;;;;;;8.88;1.92;;;;;;;;;;5062023;28;20044;-76
2022/01/20 07:47:27;;;;;;;8.35;1.92;;;;;;;;;;5032573;28;20033;-76
2022/01/20 07:49:53;;;;;;;6.47;1.55;;;;;;;;;;5002995;28;20491;-76
2022/01/20 07:52:18;;;;;;;6.40;1.33;;;;;;;;;;5016522;28;20372;-76
2022/01/20 07:54:43;;;;;;;5.95;1.48;;;;;;;;;;5024677;28;20048;-76
2022/01/20 07:57:10;;;;;;;6.78;1.25;;;;;;;;;;5043040;28;20505;-76
2022/01/20 07:59:35;;;;;;;5.03;1.25;;;;;;;;;;5004445;28;20041;-76
2022/01/20 08:02:00;;;;;;;7.15;1.77;;;;;;;;;;5034136;28;20075;-76
2022/01/20 08:04:26;;;;;;;8.18;1.83;;;;;;;;;;5053261;28;20051;-77
2022/01/20 08:06:52;;;;;;;5.30;1.60;;;;;;;;;;5043338;28;20041;-76
2022/01/20 08:09:18;;;;;;;5.85;2.28;;;;;;;;;;5030363;28;20048;-76
2022/01/20 08:11:44;;;;;;;8.18;1.67;;;;;;;;;;5016676;28;20036;-76
2022/01/20 08:14:10;;;;;;;8.68;2.95;;;;;;;;;;5033165;28;20036;-76
2022/01/20 08:16:35;;;;;;;10.55;4.57;;;;;;;;;;5033268;28;20047;-76
2022/01/20 08:19:00;;;;;;;8.25;3.42;;;;;;;;;;5033431;28;20422;-76
2022/01/20 08:21:26;;;;;;;9.73;3.22;;;;;;;;;;5016496;28;20040;-76
2022/01/20 08:23:51;;;;;;;8.70;3.42;;;;;;;;;;5016543;28;20052;-76
2022/01/20 08:26:17;;;;;;;10.73;3.50;;;;;;;;;;5030635;28;20070;-76
2022/01/20 08:28:42;;;;;;;12.55;3.38;;;;;;;;;;5035970;28;20059;-76
2022/01/20 08:31:08;;;;;;;10.23;3.15;;;;;;;;;;5052479;28;20040;-75
2022/01/20 08:33:34;;;;;;;9.98;2.92;;;;;;;;;;5036524;28;20056;-75
2022/01/20 08:35:59;;;;;;;8.02;2.80;;;;;;;;;;5016741;28;20124;-75
2022/01/20 08:38:24;;;;;;;7.70;2.50;;;;;;;;;;5000264;28;20079;-75
2022/01/20 08:40:51;;;;;;;8.80;3.13;;;;;;;;;;5017220;28;20111;-74
2022/01/20 08:43:16;;;;;;;9.93;3.00;;;;;;;;;;5016568;28;20051;-75
2022/01/20 08:45:43;;;;;;;7.40;2.25;;;;;;;;;;5016436;28;20041;-76
2022/01/20 08:48:12;;;;;;;5.70;2.30;;;;;;;;;;5028886;28;20507;-76
2022/01/20 08:50:38;;;;;;;11.15;3.13;;;;;;;;;;5032149;28;20033;-76
2022/01/20 08:53:04;;;;;;;9.70;2.42;;;;;;;;;;5032697;28;20044;-76
2022/01/20 08:55:29;;;;;;;10.85;2.35;;;;;;;;;;5016373;28;20537;-76
2022/01/20 08:57:55;;;;;;;8.85;3.38;;;;;;;;;;5033522;28;20116;-76
2022/01/20 09:00:21;;;;;;;9.75;3.33;;;;;;;;;;5019939;28;20033;-76
2022/01/20 09:02:46;;;;;;;6.35;2.28;;;;;;;;;;5036232;28;20106;-76
2022/01/20 09:05:12;;;;;;;6.38;2.30;;;;;;;;;;5036864;28;20045;-76
2022/01/20 09:07:37;;;;;;;6.10;2.65;;;;;;;;;;5036202;28;20483;-76
2022/01/20 09:10:07;;;;;;;10.25;2.70;;;;;;;;;;5036748;28;20033;-76
2022/01/20 09:17:42;;;;;;;8.13;2.47;;;;;;;;;;5038642;28;20523;-76
2022/01/20 09:20:08;;;;;;;6.40;2.47;;;;;;;;;;5036222;28;20124;-76
2022/01/20 09:22:33;;;;;;;8.30;1.88;;;;;;;;;;5036047;28;20051;-76
2022/01/20 09:24:59;;;;;;;7.85;2.67;;;;;;;;;;5036085;28;20047;-76
2022/01/20 09:27:24;;;;;;;8.52;2.55;;;;;;;;;;5035749;28;20036;-76
2022/01/20 09:29:49;;;;;;;7.15;2.63;;;;;;;;;;5035994;28;20052;-76
2022/01/20 09:32:17;;;;;;;7.38;2.30;;;;;;;;;;5053205;28;20064;-76
2022/01/20 09:34:42;;;;;;;8.85;2.20;;;;;;;;;;5013685;28;20518;-76
2022/01/20 09:37:08;;;;;;;6.90;1.55;;;;;;;;;;5032267;28;20025;-76
2022/01/20 09:39:37;;;;;;;5.35;2.47;;;;;;;;;;5035902;28;20033;-76
2022/01/20 09:42:03;;;;;;;5.53;1.77;;;;;;;;;;5003796;28;20108;-76
2022/01/20 09:44:29;;;;;;;5.13;1.92;;;;;;;;;;5003284;28;20458;-76
2022/01/20 09:46:54;;;;;;;8.48;2.00;;;;;;;;;;5018898;28;20049;-76
2022/01/20 09:49:20;;;;;;;5.85;2.25;;;;;;;;;;5010201;28;20028;-76
2022/01/20 09:51:45;;;;;;;7.72;1.80;;;;;;;;;;5022354;28;20047;-76
2022/01/20 09:54:11;;;;;;;4.72;1.90;;;;;;;;;;5022261;28;20048;-76
2022/01/20 09:56:37;;;;;;;4.55;2.17;;;;;;;;;;5039122;28;20490;-76
2022/01/20 09:59:03;;;;;;;8.93;1.92;;;;;;;;;;5038842;28;20395;-76
2022/01/20 10:01:45;;;;;;;5.07;1.92;;;;;;;;;;5038691;28;20037;-76
2022/01/20 10:04:23;;;;;;;5.53;1.70;;;;;;;;;;5022724;28;20043;-76
2022/01/20 10:07:09;;;;;;;4.55;1.90;;;;;;;;;;5038733;28;20048;-76
2022/01/20 10:09:38;;;;;;;3.60;1.10;;;;;;;;;;5038977;28;20040;-76
2022/01/20 10:12:04;;;;;;;5.72;2.08;;;;;;;;;;5038963;28;20032;-76
2022/01/20 10:14:46;;;;;;;7.53;2.47;;;;;;;;;;5038916;28;20494;-76
2022/01/20 10:17:24;;;;;;;6.68;1.60;;;;;;;;;;5022533;28;20040;-76
2022/01/20 10:19:54;;;;;;;5.43;1.90;;;;;;;;;;5056245;28;20040;-76
2022/01/20 10:22:23;;;;;;;7.07;1.52;;;;;;;;;;5038714;28;20048;-76
2022/01/20 10:24:59;;;;;;;3.72;1.73;;;;;;;;;;5022310;28;20094;-76
2022/01/20 10:27:24;;;;;;;3.47;1.52;;;;;;;;;;5072849;28;20094;-76
2022/01/20 10:30:00;;;;;;;3.75;1.42;;;;;;;;;;5021592;28;20123;-76
2022/01/20 10:32:26;;;;;;;5.47;1.50;;;;;;;;;;5038513;28;20399;-76
2022/01/20 10:35:04;;;;;;;5.13;1.40;;;;;;;;;;5011301;28;20070;-76
2022/01/20 10:37:30;;;;;;;6.63;1.48;;;;;;;;;;5021267;28;20475;-76
2022/01/20 10:40:15;;;;;;;4.45;2.15;;;;;;;;;;5037830;28;20032;-76
2022/01/20 10:42:42;;;;;;;5.63;1.92;;;;;;;;;;5056669;28;20039;-76
2022/01/20 10:45:08;;;;;;;3.78;1.10;;;;;;;;;;5038099;28;20037;-76
2022/01/20 10:47:36;;;;;;;4.75;1.83;;;;;;;;;;5038147;28;20060;-76
2022/01/20 10:50:31;;;;;;;5.18;1.83;;;;;;;;;;5008839;28;20041;-76
2022/01/20 10:52:56;;;;;;;4.53;1.67;;;;;;;;;;5015187;28;20076;-76
2022/01/20 10:55:33;;;;;;;3.65;1.33;;;;;;;;;;5034317;28;20515;-76
2022/01/20 10:58:31;;;;;;;5.82;1.88;;;;;;;;;;5017838;28;20418;-76
2022/01/20 11:00:57;;;;;;;5.45;1.38;;;;;;;;;;5001450;28;20052;-76
2022/01/20 11:03:24;;;;;;;4.97;1.60;;;;;;;;;;5017565;28;20423;-76
2022/01/20 11:05:52;;;;;;;5.53;1.58;;;;;;;;;;5017952;28;20041;-76
2022/01/20 11:08:17;;;;;;;3.25;0.90;;;;;;;;;;5018256;28;20033;-76
2022/01/20 11:10:44;;;;;;;4.25;1.95;;;;;;;;;;5001515;28;20106;-76
2022/01/20 11:13:10;;;;;;;3.92;0.93;;;;;;;;;;5017767;28;20044;-76
2022/01/20 11:15:35;;;;;;;5.47;1.70;;;;;;;;;;5001539;28;20040;-76
2022/01/20 11:18:01;;;;;;;4.25;1.38;;;;;;;;;;5017539;28;20577;-76
2022/01/20 11:20:29;;;;;;;4.00;1.60;;;;;;;;;;5001016;28;20083;-75
2022/01/20 11:23:05;;;;;;;3.90;1.00;;;;;;;;;;5000511;28;20049;-76
2022/01/20 11:25:35;;;;;;;4.25;1.23;;;;;;;;;;5034326;28;20051;-76
2022/01/20 11:28:10;;;;;;;5.40;1.13;;;;;;;;;;5001850;28;20068;-76
2022/01/20 11:30:39;;;;;;;4.50;1.23;;;;;;;;;;5017496;28;20392;-76
2022/01/20 11:33:07;;;;;;;4.82;1.25;;;;;;;;;;5001495;28;20033;-76
2022/01/20 11:35:41;;;;;;;5.85;1.95;;;;;;;;;;5016799;28;20032;-76
2022/01/20 11:38:06;;;;;;;3.80;1.33;;;;;;;;;;5020678;28;20498;-76
2022/01/20 11:40:32;;;;;;;5.00;1.27;;;;;;;;;;5037257;28;20051;-76
2022/01/20 11:42:59;;;;;;;4.32;1.35;;;;;;;;;;5020696;28;20040;-76
2022/01/20 11:45:32;;;;;;;4.30;1.20;;;;;;;;;;5037164;28;20035;-76
2022/01/20 11:47:57;;;;;;;4.75;1.30;;;;;;;;;;5054247;28;20051;-76
2022/01/20 11:50:23;;;;;;;3.65;1.30;;;;;;;;;;5020665;28;20379;-76
2022/01/20 11:52:48;;;;;;;5.35;1.30;;;;;;;;;;5016714;28;20387;-76
2022/01/20 11:55:15;;;;;;;4.43;1.77;;;;;;;;;;5033696;28;20136;-76
2022/01/20 11:57:40;;;;;;;4.35;1.40;;;;;;;;;;5051208;28;20040;-76
2022/01/20 12:00:23;;;;;;;3.92;1.35;;;;;;;;;;5033488;28;20127;-76
2022/01/20 12:02:48;;;;;;;3.88;2.00;;;;;;;;;;5017931;28;20036;-76
2022/01/20 12:05:18;;;;;;;6.20;1.50;;;;;;;;;;5017143;28;20041;-76
2022/01/20 12:07:43;;;;;;;5.07;1.65;;;;;;;;;;5033571;28;20086;-76
2022/01/20 12:10:29;;;;;;;5.28;1.30;;;;;;;;;;5017139;28;20067;-76
2022/01/20 12:13:07;;;;;;;3.95;1.23;;;;;;;;;;5032410;28;20346;-76
2022/01/20 12:15:33;;;;;;;3.17;1.50;;;;;;;;;;5000763;28;20411;-76
2022/01/20 12:17:58;;;;;;;4.13;1.40;;;;;;;;;;5000575;28;20036;-76
2022/01/20 12:20:24;;;;;;;4.88;1.30;;;;;;;;;;5016742;28;20037;-76
2022/01/20 12:22:49;;;;;;;4.50;1.08;;;;;;;;;;5000120;28;20041;-76
2022/01/20 12:25:24;;;;;;;4.53;1.25;;;;;;;;;;5000750;28;20048;-76
2022/01/20 12:27:49;;;;;;;3.17;1.15;;;;;;;;;;5033690;28;20037;-76
2022/01/20 12:30:19;;;;;;;3.88;1.83;;;;;;;;;;5000699;28;20117;-76
2022/01/20 12:32:55;;;;;;;3.22;1.00;;;;;;;;;;5033945;28;20033;-76
2022/01/20 12:35:20;;;;;;;5.57;1.23;;;;;;;;;;5018278;28;20089;-76
2022/01/20 12:37:45;;;;;;;3.72;0.93;;;;;;;;;;5040181;28;20044;-76
2022/01/20 12:40:21;;;;;;;3.97;1.25;;;;;;;;;;5040374;28;20437;-76
2022/01/20 12:42:48;;;;;;;3.97;1.08;;;;;;;;;;5040750;28;20058;-76
2022/01/20 12:48:14;;;;;;;5.20;1.02;;;;;;;;;;5043142;28;20033;-76
2022/01/20 12:50:52;;;;;;;3.78;1.25;;;;;;;;;;5021852;28;20537;-76
2022/01/20 12:53:18;;;;;;;3.97;1.00;;;;;;;;;;5019812;28;20068;-76
2022/01/20 12:55:51;;;;;;;3.83;0.90;;;;;;;;;;5021587;28;20040;-76
2022/01/20 12:58:17;;;;;;;4.13;1.30;;;;;;;;;;5019826;28;20037;-76
2022/01/20 13:00:42;;;;;;;3.83;1.23;;;;;;;;;;5019884;28;20041;-76
2022/01/20 13:03:07;;;;;;;2.92;0.98;;;;;;;;;;5003270;28;20041;-76
2022/01/20 13:05:40;;;;;;;3.70;1.25;;;;;;;;;;5003917;28;20529;-77
2022/01/20 13:08:05;;;;;;;;;;;;;;;;;;4989468;28;20514;-77
2022/01/20 13:10:33;;;;;;;6.45;1.33;;;;;;;;;;5025863;28;19920;-77
2022/01/20 13:13:00;;;;;;;5.03;1.10;;;;;;;;;;5023633;28;20427;-77
2022/01/20 13:15:26;;;;;;;9.48;2.72;;;;;;;;;;5023747;28;20028;-77
2022/01/20 13:18:08;;;;;;;10.50;5.18;;;;;;;;;;5032780;28;20048;-77
2022/01/20 13:20:40;;;;;;;9.85;3.55;;;;;;;;;;5019822;28;20108;-77
2022/01/20 13:23:54;;;;;;;10.50;4.05;;;;;;;;;;5022244;28;20134;-77
2022/01/20 13:26:01;;;;;;;9.98;3.75;;;;;;;;;;5025022;28;20041;-77
2022/01/20 13:28:27;;;;;;;8.35;4.53;;;;;;;;;;5036143;28;20079;-77
2022/01/20 13:30:52;;;;;;;7.72;3.70;;;;;;;;;;5019275;28;20057;-77
2022/01/20 13:33:25;;;;;;;8.05;3.72;;;;;;;;;;5019037;28;20033;-77
2022/01/20 13:36:01;;;;;;;5.90;2.85;;;;;;;;;;5037145;28;20111;-76
2022/01/20 13:38:48;;;;;;;7.63;3.33;;;;;;;;;;5009380;28;20080;-77
2022/01/20 13:41:22;;;;;;;7.60;3.60;;;;;;;;;;5022573;28;20502;-77
2022/01/20 13:46:38;;;;;;;8.98;3.10;;;;;;;;;;5038248;28;20060;-77
2022/01/20 13:49:23;;;;;;;8.05;3.03;;;;;;;;;;5025245;28;20158;-77
2022/01/20 13:52:19;;;;;;;9.00;3.55;;;;;;;;;;5036214;28;20522;-77
2022/01/20 13:54:50;;;;;;;6.75;3.13;;;;;;;;;;5019856;28;20075;-76
2022/01/20 13:57:16;;;;;;;5.70;2.80;;;;;;;;;;5038694;28;20068;-77
2022/01/20 13:59:52;;;;;;;6.60;2.85;;;;;;;;;;5038648;28;20037;-77
2022/01/20 14:02:18;;;;;;;6.43;2.90;;;;;;;;;;5054926;28;20044;-77
2022/01/20 14:04:43;;;;;;;7.50;2.97;;;;;;;;;;5035098;28;20045;-77
2022/01/20 14:07:09;;;;;;;10.07;4.20;;;;;;;;;;5002398;28;20037;-77
2022/01/20 14:09:34;;;;;;;6.40;2.97;;;;;;;;;;5035210;28;20040;-77
2022/01/20 14:11:59;;;;;;;8.70;3.78;;;;;;;;;;5024937;28;20037;-76
2022/01/20 14:14:25;;;;;;;7.60;3.78;;;;;;;;;;5019722;28;20040;-77
2022/01/20 14:16:50;;;;;;;8.23;3.35;;;;;;;;;;5038614;28;20048;-77
2022/01/20 14:19:22;;;;;;;7.72;2.83;;;;;;;;;;5054709;28;20036;-77
2022/01/20 14:21:47;;;;;;;5.47;2.70;;;;;;;;;;5055490;28;20441;-77
2022/01/20 14:24:13;;;;;;;6.28;3.10;;;;;;;;;;5028114;28;20045;-77
2022/01/20 14:26:43;;;;;;;7.50;3.10;;;;;;;;;;5018578;28;20047;-76
2022/01/20 14:29:09;;;;;;;5.32;2.40;;;;;;;;;;5017679;28;20041;-77
2022/01/20 14:31:34;;;;;;;8.57;3.17;;;;;;;;;;5018528;28;20456;-77
2022/01/20 14:34:00;;;;;;;5.85;2.92;;;;;;;;;;5031568;28;20473;-77
2022/01/20 14:36:27;;;;;;;7.72;2.47;;;;;;;;;;5025919;28;20037;-77
2022/01/20 14:38:52;;;;;;;5.85;2.25;;;;;;;;;;5018151;28;20033;-77
2022/01/20 14:41:17;;;;;;;5.30;2.40;;;;;;;;;;5034410;28;20112;-77
2022/01/20 14:43:43;;;;;;;6.40;2.35;;;;;;;;;;5017871;28;20507;-77
2022/01/20 14:46:08;;;;;;;7.03;2.15;;;;;;;;;;5001675;28;20041;-77
2022/01/20 14:48:35;;;;;;;4.78;2.20;;;;;;;;;;5035736;28;20033;-77
2022/01/20 14:51:03;;;;;;;6.18;2.10;;;;;;;;;;5018173;28;20037;-77
2022/01/20 14:53:28;;;;;;;6.95;2.90;;;;;;;;;;5024246;28;20127;-77
2022/01/20 14:55:53;;;;;;;5.30;2.10;;;;;;;;;;5032994;28;20565;-77
2022/01/20 14:58:19;;;;;;;6.32;1.92;;;;;;;;;;5017563;28;20048;-77
2022/01/20 15:00:44;;;;;;;4.90;2.20;;;;;;;;;;5025299;28;20036;-77
2022/01/20 15:03:10;;;;;;;4.30;2.10;;;;;;;;;;5020851;28;20049;-77
2022/01/20 15:05:35;;;;;;;6.80;2.55;;;;;;;;;;5052240;28;20037;-77
2022/01/20 15:08:01;;;;;;;8.13;2.45;;;;;;;;;;5037406;28;20048;-77
2022/01/20 15:10:26;;;;;;;5.80;2.00;;;;;;;;;;5000327;28;20033;-77
2022/01/20 15:12:59;;;;;;;4.18;1.90;;;;;;;;;;5025345;28;20041;-77
2022/01/20 15:15:24;;;;;;;4.50;2.00;;;;;;;;;;5021344;28;20029;-77
2022/01/20 15:17:50;;;;;;;6.28;2.42;;;;;;;;;;5018553;28;20032;-77
2022/01/20 15:20:15;;;;;;;4.72;1.85;;;;;;;;;;4988863;28;20037;-77
2022/01/20 15:22:41;;;;;;;6.53;2.78;;;;;;;;;;5026992;28;20048;-77
2022/01/20 15:25:06;;;;;;;4.53;1.83;;;;;;;;;;5011183;28;20095;-77
2022/01/20 15:27:32;;;;;;;5.03;2.17;;;;;;;;;;5000775;28;20510;-77
2022/01/20 15:29:57;;;;;;;6.28;2.33;;;;;;;;;;5000648;28;20121;-77
2022/01/20 15:32:22;;;;;;;5.82;1.60;;;;;;;;;;5020111;28;20040;-77
2022/01/20 15:34:48;;;;;;;7.45;2.28;;;;;;;;;;5017048;28;20423;-77
2022/01/20 15:37:13;;;;;;;5.05;1.73;;;;;;;;;;5030534;28;20131;-77
2022/01/20 15:39:39;;;;;;;7.35;2.00;;;;;;;;;;5019010;28;20052;-77
2022/01/20 15:42:04;;;;;;;3.78;1.95;;;;;;;;;;5030293;28;20036;-77
2022/01/20 15:44:30;;;;;;;7.15;2.10;;;;;;;;;;5028767;28;20078;-77
2022/01/20 15:46:55;;;;;;;5.43;2.17;;;;;;;;;;5000721;28;20040;-77
2022/01/20 15:49:20;;;;;;;7.90;2.90;;;;;;;;;;5017794;28;20044;-77
2022/01/20 15:51:46;;;;;;;7.70;2.22;;;;;;;;;;5033304;28;20047;-77
2022/01/20 15:54:11;;;;;;;7.32;2.13;;;;;;;;;;5027111;28;20070;-76
2022/01/20 15:56:37;;;;;;;4.72;1.50;;;;;;;;;;5019859;28;20384;-78
2022/01/20 15:59:04;;;;;;;6.30;1.75;;;;;;;;;;5020356;28;20037;-79